createdAt,value
2022-09-17T00:01:08.019Z,0.75
2022-09-17T00:03:35.395Z,0.82
2022-09-17T00:06:05.127Z,0.50
2022-09-17T00:08:32.620Z,0.50
2022-09-17T00:11:17.047Z,0.60
2022-09-17T00:13:44.985Z,0.63
2022-09-17T00:16:12.466Z,0.90
2022-09-17T00:18:42.226Z,0.68
2022-09-17T00:21:19.820Z,0.50
2022-09-17T00:23:47.019Z,0.90
2022-09-17T00:26:14.118Z,0.65
2022-09-17T00:28:41.990Z,0.65
2022-09-17T00:31:09.931Z,0.43
2022-09-17T00:33:37.093Z,0.85
2022-09-17T00:36:05.102Z,0.60
2022-09-17T00:38:31.923Z,0.60
2022-09-17T00:40:58.596Z,0.90
2022-09-17T00:43:44.373Z,0.90
2022-09-17T00:46:30.539Z,0.68
2022-09-17T00:49:01.158Z,0.68
2022-09-17T00:51:37.159Z,0.70
2022-09-17T00:54:06.918Z,0.60
2022-09-17T00:56:36.949Z,0.77
2022-09-17T00:59:04.290Z,0.50
2022-09-17T01:01:32.260Z,0.70
2022-09-17T01:03:59.773Z,0.55
2022-09-17T01:06:47.912Z,0.52
2022-09-17T01:09:43.407Z,0.65
2022-09-17T01:12:31.877Z,0.60
2022-09-17T01:15:19.836Z,0.82
2022-09-17T01:18:08.992Z,0.80
2022-09-17T01:20:54.384Z,0.88
2022-09-17T01:23:56.476Z,0.80
2022-09-17T01:26:52.957Z,0.63
2022-09-17T01:29:44.288Z,1.25
2022-09-17T01:32:30.950Z,0.88
2022-09-17T01:35:06.086Z,0.77
2022-09-17T01:37:38.491Z,0.75
2022-09-17T01:40:12.457Z,0.82
2022-09-17T01:42:58.044Z,0.85
2022-09-17T01:45:43.388Z,1.13
2022-09-17T01:48:18.595Z,1.10
2022-09-17T01:51:24.270Z,1.15
2022-09-17T01:54:03.050Z,1.00
2022-09-17T01:56:38.412Z,0.85
2022-09-17T01:59:16.439Z,0.93
2022-09-17T02:01:44.947Z,1.38
2022-09-17T02:04:28.809Z,1.00
2022-09-17T02:07:12.225Z,1.23
2022-09-17T02:09:46.372Z,1.30
2022-09-17T02:12:18.453Z,1.10
2022-09-17T02:14:53.913Z,1.48
2022-09-17T02:17:42.481Z,1.38
2022-09-17T02:20:10.368Z,1.70
2022-09-17T02:22:43.793Z,1.05
2022-09-17T02:25:24.513Z,1.10
2022-09-17T02:28:06.077Z,1.30
2022-09-17T02:30:32.825Z,1.33
2022-09-17T02:33:02.047Z,1.23
2022-09-17T02:35:31.732Z,1.00
2022-09-17T02:37:59.789Z,1.83
2022-09-17T02:40:29.131Z,1.42
2022-09-17T02:43:24.755Z,1.10
2022-09-17T02:46:20.175Z,1.08
2022-09-17T02:49:07.301Z,1.05
2022-09-17T02:51:36.900Z,1.05
2022-09-17T02:54:18.046Z,0.88
2022-09-17T02:56:57.145Z,0.82
2022-09-17T02:59:47.558Z,1.27
2022-09-17T03:02:26.169Z,0.90
2022-09-17T03:04:53.643Z,1.00
2022-09-17T03:07:22.331Z,1.20
2022-09-17T03:09:49.099Z,1.00
2022-09-17T03:12:16.460Z,0.93
2022-09-17T03:14:43.464Z,1.10
2022-09-17T03:17:10.676Z,1.20
2022-09-17T03:19:37.274Z,0.90
2022-09-17T03:22:03.906Z,0.82
2022-09-17T03:24:31.249Z,1.33
2022-09-17T03:26:57.924Z,1.00
2022-09-17T03:29:24.559Z,0.98
2022-09-17T03:31:51.594Z,0.90
2022-09-17T03:34:18.541Z,1.05
2022-09-17T03:36:45.186Z,1.45
2022-09-17T03:39:12.039Z,1.40
2022-09-17T03:41:38.690Z,1.02
2022-09-17T03:44:05.529Z,1.08
2022-09-17T03:46:32.485Z,1.10
2022-09-17T03:48:59.302Z,1.35
2022-09-17T03:51:25.953Z,1.55
2022-09-17T03:53:52.682Z,1.15
2022-09-17T03:56:19.535Z,1.27
2022-09-17T03:58:46.434Z,1.17
2022-09-17T04:01:13.322Z,1.50
2022-09-17T04:03:40.017Z,1.02
2022-09-17T04:06:06.834Z,1.52
2022-09-17T04:08:33.955Z,1.55
2022-09-17T04:11:00.653Z,1.27
2022-09-17T04:13:27.285Z,1.45
2022-09-17T04:15:54.002Z,1.35
2022-09-17T04:18:20.654Z,1.35
2022-09-17T04:20:47.373Z,1.27
2022-09-17T04:23:14.168Z,1.10
2022-09-17T04:25:40.929Z,1.30
2022-09-17T04:28:07.659Z,0.93
2022-09-17T04:30:34.600Z,1.33
2022-09-17T04:33:01.352Z,1.60
2022-09-17T04:35:28.383Z,1.80
2022-09-17T04:37:56.614Z,1.65
2022-09-17T04:40:24.994Z,1.08
2022-09-17T04:42:56.146Z,1.35
2022-09-17T04:45:24.058Z,1.10
2022-09-17T04:47:51.020Z,1.33
2022-09-17T04:50:21.409Z,1.48
2022-09-17T04:52:48.666Z,1.38
2022-09-17T04:55:16.085Z,1.63
2022-09-17T04:57:50.660Z,1.35
2022-09-17T05:00:18.891Z,1.75
2022-09-17T05:02:47.359Z,1.65
2022-09-17T05:05:15.397Z,1.52
2022-09-17T05:07:42.718Z,1.45
2022-09-17T05:10:11.440Z,1.20
2022-09-17T05:12:38.456Z,1.40
2022-09-17T05:15:05.820Z,1.42
2022-09-17T05:17:32.711Z,1.75
2022-09-17T05:19:59.391Z,1.20
2022-09-17T05:22:26.077Z,1.30
2022-09-17T05:24:52.736Z,1.48
2022-09-17T05:27:19.374Z,1.33
2022-09-17T05:29:46.023Z,1.42
2022-09-17T05:32:12.687Z,1.58
2022-09-17T05:34:39.312Z,1.30
2022-09-17T05:37:05.975Z,1.67
2022-09-17T05:39:33.049Z,1.30
2022-09-17T05:41:59.701Z,1.30
2022-09-17T05:44:26.337Z,1.30
2022-09-17T05:46:55.783Z,1.27
2022-09-17T05:49:22.572Z,1.13
2022-09-17T05:51:51.627Z,1.20
2022-09-17T05:54:18.314Z,1.52
2022-09-17T05:56:44.906Z,1.45
2022-09-17T05:59:12.518Z,1.55
2022-09-17T06:01:39.305Z,1.30
2022-09-17T06:04:05.998Z,1.27
2022-09-17T06:06:32.813Z,1.30
2022-09-17T06:09:00.155Z,1.52
2022-09-17T06:11:26.801Z,1.20
2022-09-17T06:13:54.785Z,1.38
2022-09-17T06:16:22.897Z,1.40
2022-09-17T06:18:55.730Z,1.85
2022-09-17T06:21:22.928Z,1.30
2022-09-17T06:23:50.347Z,1.90
2022-09-17T06:26:17.393Z,1.48
2022-09-17T06:28:44.734Z,1.27
2022-09-17T06:31:13.246Z,1.77
2022-09-17T06:33:40.614Z,1.45
2022-09-17T06:36:13.739Z,1.42
2022-09-17T06:38:41.434Z,1.77
2022-09-17T06:41:08.280Z,1.35
2022-09-17T06:43:34.984Z,1.50
2022-09-17T06:46:05.883Z,1.67
2022-09-17T06:48:34.727Z,1.55
2022-09-17T06:51:10.315Z,1.50
2022-09-17T06:53:38.184Z,1.67
2022-09-17T06:56:06.998Z,1.58
2022-09-17T06:58:37.090Z,1.92
2022-09-17T07:01:05.314Z,1.85
2022-09-17T07:03:33.115Z,2.10
2022-09-17T07:06:00.040Z,1.60
2022-09-17T07:08:26.685Z,2.35
2022-09-17T07:10:57.508Z,1.70
2022-09-17T07:13:25.043Z,1.67
2022-09-17T07:15:56.571Z,1.35
2022-09-17T07:18:23.589Z,1.30
2022-09-17T07:20:58.281Z,1.55
2022-09-17T07:23:27.110Z,1.67
2022-09-17T07:25:59.106Z,1.80
2022-09-17T07:28:26.879Z,1.83
2022-09-17T07:30:53.895Z,1.60
2022-09-17T07:33:26.084Z,1.73
2022-09-17T07:35:57.761Z,1.60
2022-09-17T07:38:25.218Z,1.58
2022-09-17T07:41:07.218Z,1.90
2022-09-17T07:43:36.010Z,1.50
2022-09-17T07:46:04.987Z,1.73
2022-09-17T07:48:31.862Z,1.77
2022-09-17T07:50:58.645Z,1.65
2022-09-17T07:53:25.767Z,1.60
2022-09-17T07:55:53.947Z,1.50
2022-09-17T07:58:22.017Z,1.60
2022-09-17T08:00:49.334Z,1.63
2022-09-17T08:03:16.324Z,1.27
2022-09-17T08:05:43.076Z,1.63
2022-09-17T08:08:09.770Z,1.70
2022-09-17T08:10:36.801Z,1.90
2022-09-17T08:13:03.516Z,1.90
2022-09-17T08:15:30.249Z,1.70
2022-09-17T08:17:56.901Z,1.75
2022-09-17T08:20:26.103Z,1.45
2022-09-17T08:22:59.385Z,1.90
2022-09-17T08:25:26.108Z,1.83
2022-09-17T08:27:59.356Z,1.58
2022-09-17T08:30:26.072Z,1.40
2022-09-17T08:32:56.209Z,1.88
2022-09-17T08:35:24.541Z,1.70
2022-09-17T08:37:51.141Z,2.20
2022-09-17T08:40:22.356Z,2.13
2022-09-17T08:43:01.595Z,1.90
2022-09-17T08:45:29.292Z,2.20
2022-09-17T08:48:02.767Z,2.03
2022-09-17T08:50:31.212Z,2.00
2022-09-17T08:53:23.438Z,2.20
2022-09-17T08:56:15.898Z,1.75
2022-09-17T08:58:54.649Z,2.10
2022-09-17T09:01:31.132Z,1.67
2022-09-17T09:04:03.764Z,1.77
2022-09-17T09:06:36.192Z,2.20
2022-09-17T09:09:17.004Z,1.70
2022-09-17T09:11:45.267Z,2.10
2022-09-17T09:14:38.534Z,1.88
2022-09-17T09:17:09.776Z,1.42
2022-09-17T09:19:44.283Z,1.90
2022-09-17T09:22:36.305Z,1.88
2022-09-17T09:25:23.868Z,1.70
2022-09-17T09:27:56.750Z,1.65
2022-09-17T09:30:25.069Z,1.60
2022-09-17T09:33:13.613Z,1.75
2022-09-17T09:35:43.125Z,1.80
2022-09-17T09:38:09.736Z,1.50
2022-09-17T09:40:57.039Z,1.58
2022-09-17T09:44:04.839Z,1.60
2022-09-17T09:46:57.699Z,1.70
2022-09-17T09:49:47.451Z,1.73
2022-09-17T09:52:34.423Z,1.60
2022-09-17T09:55:29.942Z,1.70
2022-09-17T09:58:26.195Z,1.45
2022-09-17T10:00:52.903Z,1.55
2022-09-17T10:03:32.368Z,2.00
2022-09-17T10:06:01.942Z,2.65
2022-09-17T10:08:35.469Z,1.88
2022-09-17T10:11:13.467Z,1.60
2022-09-17T10:13:40.973Z,1.30
2022-09-17T10:16:18.787Z,1.40
2022-09-17T10:18:49.706Z,1.42
2022-09-17T10:21:32.976Z,1.60
2022-09-17T10:24:01.394Z,1.27
2022-09-17T10:26:33.477Z,1.30
2022-09-17T10:29:03.122Z,1.30
2022-09-17T10:31:50.095Z,1.63
2022-09-17T10:34:28.929Z,1.02
2022-09-17T10:36:58.748Z,0.80
2022-09-17T10:39:32.826Z,1.35
2022-09-17T10:42:03.465Z,1.42
2022-09-17T10:44:38.028Z,1.20
2022-09-17T10:47:16.307Z,0.85
2022-09-17T10:49:49.570Z,1.13
2022-09-17T10:52:35.314Z,1.00
2022-09-17T10:55:37.195Z,1.10
2022-09-17T10:58:09.777Z,1.27
2022-09-17T11:00:43.894Z,1.02
2022-09-17T11:03:39.251Z,1.17
2022-09-17T11:06:33.736Z,1.15
2022-09-17T11:09:09.520Z,1.10
2022-09-17T11:11:46.139Z,1.10
2022-09-17T11:14:49.406Z,0.90
2022-09-17T11:17:50.108Z,1.23
2022-09-17T11:20:29.503Z,0.88
2022-09-17T11:23:23.387Z,1.08
2022-09-17T11:26:00.818Z,0.77
2022-09-17T11:28:54.367Z,0.70
2022-09-17T11:31:51.965Z,0.90
2022-09-17T11:34:21.499Z,1.00
2022-09-17T11:36:59.512Z,1.30
2022-09-17T11:39:35.169Z,1.00
2022-09-17T11:42:06.599Z,1.25
2022-09-17T11:44:41.006Z,0.90
2022-09-17T11:47:20.533Z,1.23
2022-09-17T11:49:54.123Z,0.98
2022-09-17T11:52:42.679Z,0.98
2022-09-17T11:55:24.123Z,0.90
2022-09-17T11:57:57.813Z,1.00
2022-09-17T12:00:24.751Z,1.00
2022-09-17T12:03:14.765Z,1.10
2022-09-17T12:05:58.761Z,1.48
2022-09-17T12:08:32.759Z,1.23
2022-09-17T12:11:43.070Z,1.15
2022-09-17T12:14:20.946Z,1.00
2022-09-17T12:16:50.791Z,1.02
2022-09-17T12:19:39.100Z,1.40
2022-09-17T12:22:15.619Z,1.20
2022-09-17T12:24:43.126Z,1.45
2022-09-17T12:27:38.183Z,1.10
2022-09-17T12:30:09.646Z,1.55
2022-09-17T12:33:05.471Z,1.27
2022-09-17T12:36:04.917Z,1.30
2022-09-17T12:38:44.397Z,1.40
2022-09-17T12:41:22.113Z,0.93
2022-09-17T12:43:55.454Z,1.35
2022-09-17T12:46:38.118Z,1.50
2022-09-17T12:49:46.967Z,1.50
2022-09-17T12:52:32.360Z,1.35
2022-09-17T12:55:23.158Z,1.20
2022-09-17T12:58:07.071Z,1.38
2022-09-17T13:00:43.570Z,1.30
2022-09-17T13:03:32.009Z,1.10
2022-09-17T13:06:13.061Z,1.00
2022-09-17T13:09:20.581Z,1.45
2022-09-17T13:12:27.980Z,1.63
2022-09-17T13:15:46.662Z,1.20
2022-09-17T13:18:36.980Z,1.40
2022-09-17T13:21:13.324Z,1.42
2022-09-17T13:23:45.600Z,1.08
2022-09-17T13:26:17.245Z,1.50
2022-09-17T13:28:49.120Z,1.23
2022-09-17T13:31:44.493Z,1.20
2022-09-17T13:34:32.036Z,1.20
2022-09-17T13:37:01.242Z,1.15
2022-09-17T13:39:47.223Z,1.67
2022-09-17T13:42:49.172Z,1.48
2022-09-17T13:45:17.916Z,1.65
2022-09-17T13:48:11.377Z,2.30
2022-09-17T13:50:48.000Z,1.58
2022-09-17T13:53:14.667Z,1.25
2022-09-17T13:55:52.205Z,1.10
2022-09-17T13:58:19.065Z,1.27
2022-09-17T14:01:11.707Z,1.75
2022-09-17T14:03:41.989Z,0.90
2022-09-17T14:06:08.717Z,1.10
2022-09-17T14:08:44.640Z,1.40
2022-09-17T14:11:24.029Z,1.20
2022-09-17T14:13:50.958Z,1.00
2022-09-17T14:16:36.939Z,0.95
2022-09-17T14:19:16.025Z,1.40
2022-09-17T14:22:12.841Z,1.20
2022-09-17T14:24:42.495Z,1.08
2022-09-17T14:27:42.081Z,1.25
2022-09-17T14:30:25.569Z,1.10
2022-09-17T14:33:01.567Z,1.05
2022-09-17T14:35:50.216Z,1.10
2022-09-17T14:38:31.171Z,1.00
2022-09-17T14:41:03.349Z,1.20
2022-09-17T14:43:50.564Z,0.93
2022-09-17T14:46:27.556Z,1.20
2022-09-17T14:48:54.410Z,1.00
2022-09-17T14:51:21.109Z,1.17
2022-09-17T14:54:05.751Z,1.02
2022-09-17T14:56:34.824Z,1.42
2022-09-17T14:59:02.129Z,1.55
2022-09-17T15:01:30.875Z,0.95
2022-09-17T15:04:12.933Z,0.88
2022-09-17T15:06:43.887Z,1.00
2022-09-17T15:09:17.438Z,1.38
2022-09-17T15:11:47.914Z,1.10
2022-09-17T15:14:25.671Z,1.08
2022-09-17T15:16:56.348Z,1.20
2022-09-17T15:19:48.008Z,1.75
2022-09-17T15:22:20.944Z,1.10
2022-09-17T15:24:50.782Z,1.27
2022-09-17T15:27:23.548Z,1.30
2022-09-17T15:29:54.836Z,1.38
2022-09-17T15:32:21.727Z,1.40
2022-09-17T15:35:11.218Z,1.30
2022-09-17T15:38:11.524Z,1.73
2022-09-17T15:40:38.431Z,2.08
2022-09-17T15:43:17.274Z,1.60
2022-09-17T15:45:43.956Z,1.42
2022-09-17T15:48:33.273Z,1.30
2022-09-17T15:51:01.888Z,1.15
2022-09-17T15:53:33.113Z,1.02
2022-09-17T15:56:11.215Z,1.45
2022-09-17T15:59:01.850Z,1.00
2022-09-17T16:01:40.546Z,1.15
2022-09-17T16:04:27.994Z,1.00
2022-09-17T16:07:00.282Z,1.30
2022-09-17T16:09:51.214Z,1.48
2022-09-17T16:12:23.315Z,0.93
2022-09-17T16:14:54.558Z,0.90
2022-09-17T16:17:41.904Z,1.38
2022-09-17T16:20:23.647Z,2.58
2022-09-17T16:22:55.628Z,0.80
2022-09-17T16:25:28.205Z,0.88
2022-09-17T16:28:02.387Z,1.75
2022-09-17T16:30:29.324Z,0.98
2022-09-17T16:32:56.109Z,0.60
2022-09-17T16:35:25.771Z,0.70
2022-09-17T16:37:54.605Z,1.08
2022-09-17T16:40:25.160Z,1.13
2022-09-17T16:42:51.955Z,0.90
2022-09-17T16:45:18.756Z,1.13
2022-09-17T16:47:45.523Z,0.90
2022-09-17T16:50:14.976Z,0.90
2022-09-17T16:52:41.946Z,0.75
2022-09-17T16:55:08.931Z,0.82
2022-09-17T16:57:35.665Z,0.80
2022-09-17T17:00:03.685Z,0.68
2022-09-17T17:02:30.399Z,0.75
2022-09-17T17:04:58.147Z,0.65
2022-09-17T17:07:25.272Z,0.70
2022-09-17T17:09:51.942Z,0.73
2022-09-17T17:12:18.744Z,1.00
2022-09-17T17:14:49.921Z,0.70
2022-09-17T17:17:19.157Z,0.80
2022-09-17T17:19:48.691Z,0.60
2022-09-17T17:22:15.889Z,0.50
2022-09-17T17:24:42.583Z,0.75
2022-09-17T17:27:09.697Z,0.50
2022-09-17T17:29:36.615Z,0.60
2022-09-17T17:32:04.785Z,0.70
2022-09-17T17:34:32.283Z,0.50
2022-09-17T17:36:59.236Z,0.70
2022-09-17T17:39:26.305Z,0.90
2022-09-17T17:41:55.636Z,0.95
2022-09-17T17:44:22.376Z,0.50
2022-09-17T17:46:49.232Z,0.70
2022-09-17T17:49:16.000Z,0.50
2022-09-17T17:51:42.916Z,0.70
2022-09-17T17:54:09.590Z,0.60
2022-09-17T17:56:36.320Z,0.80
2022-09-17T17:59:04.276Z,0.80
2022-09-17T18:01:34.628Z,0.55
2022-09-17T18:04:04.147Z,0.60
2022-09-17T18:06:31.506Z,0.95
2022-09-17T18:08:58.319Z,0.65
2022-09-17T18:11:25.660Z,0.90
2022-09-17T18:13:54.169Z,0.80
2022-09-17T18:16:22.117Z,0.77
2022-09-17T18:18:49.383Z,1.02
2022-09-17T18:21:21.844Z,0.80
2022-09-17T18:23:50.040Z,0.93
2022-09-17T18:26:21.415Z,0.65
2022-09-17T18:28:48.877Z,0.93
2022-09-17T18:31:25.716Z,0.57
2022-09-17T18:34:02.903Z,1.00
2022-09-17T18:36:32.200Z,1.00
2022-09-17T18:39:24.151Z,0.63
2022-09-17T18:41:51.534Z,0.60
2022-09-17T18:44:21.621Z,0.65
2022-09-17T18:46:51.235Z,0.60
2022-09-17T18:49:18.131Z,0.77
2022-09-17T18:51:45.078Z,0.82
2022-09-17T18:54:12.868Z,0.88
2022-09-17T18:56:41.396Z,0.90
2022-09-17T18:59:08.637Z,0.95
2022-09-17T19:01:36.004Z,1.33
2022-09-17T19:04:03.395Z,1.02
2022-09-17T19:06:31.906Z,0.70
2022-09-17T19:09:03.148Z,0.82
2022-09-17T19:11:30.216Z,0.88
2022-09-17T19:13:57.012Z,0.80
2022-09-17T19:16:23.870Z,0.85
2022-09-17T19:18:50.700Z,1.02
2022-09-17T19:21:20.615Z,0.80
2022-09-17T19:23:50.117Z,1.00
2022-09-17T19:26:19.953Z,0.68
2022-09-17T19:28:47.239Z,0.80
2022-09-17T19:31:16.361Z,1.25
2022-09-17T19:33:44.080Z,0.98
2022-09-17T19:36:13.520Z,0.60
2022-09-17T19:38:40.250Z,0.80
2022-09-17T19:41:12.222Z,0.73
2022-09-17T19:43:39.612Z,0.80
2022-09-17T19:46:08.782Z,1.00
2022-09-17T19:48:36.242Z,0.90
2022-09-17T19:51:04.755Z,1.00
2022-09-17T19:53:32.900Z,0.90
2022-09-17T19:55:59.552Z,0.93
2022-09-17T19:58:26.305Z,0.90
2022-09-17T20:00:57.477Z,0.90
2022-09-17T20:03:24.836Z,1.05
2022-09-17T20:05:59.636Z,1.10
2022-09-17T20:08:26.483Z,0.65
2022-09-17T20:10:54.998Z,0.90
2022-09-17T20:13:22.589Z,1.30
2022-09-17T20:15:49.342Z,0.85
2022-09-17T20:18:18.770Z,0.90
2022-09-17T20:20:49.998Z,1.35
2022-09-17T20:23:16.758Z,0.90
2022-09-17T20:25:50.679Z,1.17
2022-09-17T20:28:17.770Z,1.10
2022-09-17T20:30:44.836Z,0.90
2022-09-17T20:33:11.601Z,0.52
2022-09-17T20:35:38.299Z,0.80
2022-09-17T20:40:51.721Z,1.08
2022-09-17T20:43:18.573Z,0.98
2022-09-17T20:45:56.342Z,0.80
2022-09-17T20:48:23.379Z,0.75
2022-09-17T20:51:05.350Z,1.30
2022-09-17T20:53:35.024Z,1.08
2022-09-17T20:56:07.792Z,1.20
2022-09-17T20:58:36.605Z,1.05
2022-09-17T21:01:08.776Z,1.23
2022-09-17T21:03:35.680Z,1.10
2022-09-17T21:06:02.413Z,1.00
2022-09-17T21:08:29.463Z,1.15
2022-09-17T21:10:56.174Z,0.85
2022-09-17T21:13:22.943Z,0.70
2022-09-17T21:16:00.439Z,1.00
2022-09-17T21:18:27.917Z,0.98
2022-09-17T21:20:55.807Z,0.95
2022-09-17T21:23:27.424Z,1.35
2022-09-17T21:26:03.490Z,1.10
2022-09-17T21:28:31.733Z,1.10
2022-09-17T21:31:23.142Z,0.95
2022-09-17T21:33:53.619Z,0.77
2022-09-17T21:36:22.310Z,0.93
2022-09-17T21:38:56.904Z,1.10
2022-09-17T21:41:25.044Z,1.38
2022-09-17T21:43:52.310Z,1.15
2022-09-17T21:46:22.718Z,1.38
2022-09-17T21:48:58.157Z,0.75
2022-09-17T21:51:30.821Z,0.68
2022-09-17T21:54:12.343Z,0.90
2022-09-17T21:56:39.371Z,0.90
2022-09-17T21:59:08.966Z,0.90
2022-09-17T22:01:41.338Z,1.30
2022-09-17T22:04:10.620Z,1.00
2022-09-17T22:06:38.213Z,0.82
2022-09-17T22:09:06.027Z,1.05
2022-09-17T22:11:37.481Z,0.80
2022-09-17T22:14:13.606Z,1.17
2022-09-17T22:16:43.233Z,1.00
2022-09-17T22:19:14.365Z,0.80
2022-09-17T22:21:44.636Z,0.70
2022-09-17T22:24:12.331Z,0.95
2022-09-17T22:26:43.515Z,1.00
2022-09-17T22:29:16.234Z,0.90
2022-09-17T22:31:43.562Z,1.13
2022-09-17T22:34:12.435Z,1.10
2022-09-17T22:36:39.569Z,0.95
2022-09-17T22:39:09.702Z,1.17
2022-09-17T22:41:42.895Z,1.08
2022-09-17T22:44:16.759Z,1.02
2022-09-17T22:46:46.443Z,0.70
2022-09-17T22:49:14.623Z,0.68
2022-09-17T22:51:42.315Z,1.00
2022-09-17T22:54:12.913Z,0.68
2022-09-17T22:56:39.969Z,0.90
2022-09-17T22:59:06.899Z,0.88
2022-09-17T23:01:36.347Z,1.15
2022-09-17T23:04:04.697Z,0.95
2022-09-17T23:06:34.336Z,1.02
2022-09-17T23:09:01.516Z,0.90
2022-09-17T23:11:34.395Z,0.93
2022-09-17T23:14:05.380Z,0.93
2022-09-17T23:16:37.723Z,0.88
2022-09-17T23:19:05.294Z,0.85
2022-09-17T23:21:32.181Z,0.90
2022-09-17T23:23:59.082Z,0.80
2022-09-17T23:26:27.371Z,1.00
2022-09-17T23:28:54.309Z,0.77
2022-09-17T23:31:26.155Z,1.10
2022-09-17T23:33:54.091Z,1.00
2022-09-17T23:36:23.830Z,0.80
2022-09-17T23:38:51.198Z,0.77
2022-09-17T23:41:23.784Z,0.80
2022-09-17T23:43:53.616Z,1.35
2022-09-17T23:46:21.986Z,0.98
2022-09-17T23:48:51.604Z,1.25
2022-09-17T23:51:18.298Z,1.20
2022-09-17T23:53:45.248Z,0.70
2022-09-17T23:56:13.970Z,0.95
2022-09-17T23:58:41.110Z,0.70
